sensor_id;sensor_type;location;lat;lon;timestamp;temperature;humidity
5218;DHT22;26539;51.064;6.346;2022-12-20T00:01:34;13.10;98.00
5218;DHT22;26539;51.064;6.346;2022-12-20T00:04:05;13.20;83.40
5218;DHT22;26539;51.064;6.346;2022-12-20T00:06:48;13.20;50.00
5218;DHT22;26539;51.064;6.346;2022-12-20T00:09:21;13.20;25.80
5218;DHT22;26539;51.064;6.346;2022-12-20T00:11:54;13.20;16.50
5218;DHT22;26539;51.064;6.346;2022-12-20T00:14:48;13.20;9.00
5218;DHT22;26539;51.064;6.346;2022-12-20T00:17:22;13.20;1.00
5218;DHT22;26539;51.064;6.346;2022-12-20T00:19:53;13.20;1.00
5218;DHT22;26539;51.064;6.346;2022-12-20T00:22:22;13.20;1.00
5218;DHT22;26539;51.064;6.346;2022-12-20T00:24:58;13.20;1.00
5218;DHT22;26539;51.064;6.346;2022-12-20T00:27:44;13.20;1.00
5218;DHT22;26539;51.064;6.346;2022-12-20T00:30:18;13.20;1.00
5218;DHT22;26539;51.064;6.346;2022-12-20T00:33:07;13.30;1.00
5218;DHT22;26539;51.064;6.346;2022-12-20T00:35:43;13.30;1.00
5218;DHT22;26539;51.064;6.346;2022-12-20T00:38:21;13.30;1.00
5218;DHT22;26539;51.064;6.346;2022-12-20T00:41:10;13.30;1.00
5218;DHT22;26539;51.064;6.346;2022-12-20T00:43:54;13.30;1.00
5218;DHT22;26539;51.064;6.346;2022-12-20T00:46:56;13.40;1.00
5218;DHT22;26539;51.064;6.346;2022-12-20T00:49:33;13.40;1.00
5218;DHT22;26539;51.064;6.346;2022-12-20T00:52:10;13.40;1.00
5218;DHT22;26539;51.064;6.346;2022-12-20T00:54:49;13.40;1.00
5218;DHT22;26539;51.064;6.346;2022-12-20T00:57:43;13.40;1.00
5218;DHT22;26539;51.064;6.346;2022-12-20T01:00:55;13.40;1.00
5218;DHT22;26539;51.064;6.346;2022-12-20T01:03:28;13.40;1.00
5218;DHT22;26539;51.064;6.346;2022-12-20T01:06:08;13.40;1.00
5218;DHT22;26539;51.064;6.346;2022-12-20T01:08:54;13.40;1.00
5218;DHT22;26539;51.064;6.346;2022-12-20T01:11:31;13.40;1.00
5218;DHT22;26539;51.064;6.346;2022-12-20T01:14:06;13.40;1.00
5218;DHT22;26539;51.064;6.346;2022-12-20T01:20:18;13.30;1.00
5218;DHT22;26539;51.064;6.346;2022-12-20T01:23:04;13.30;1.00
5218;DHT22;26539;51.064;6.346;2022-12-20T01:25:30;13.20;1.00
5218;DHT22;26539;51.064;6.346;2022-12-20T01:28:04;13.30;1.00
5218;DHT22;26539;51.064;6.346;2022-12-20T01:30:30;13.30;1.00
5218;DHT22;26539;51.064;6.346;2022-12-20T01:32:55;13.20;1.00
5218;DHT22;26539;51.064;6.346;2022-12-20T01:35:20;13.20;1.00
5218;DHT22;26539;51.064;6.346;2022-12-20T01:37:46;13.20;1.00
5218;DHT22;26539;51.064;6.346;2022-12-20T01:40:12;13.20;1.00
5218;DHT22;26539;51.064;6.346;2022-12-20T01:42:38;13.10;1.00
5218;DHT22;26539;51.064;6.346;2022-12-20T01:45:07;13.10;1.00
5218;DHT22;26539;51.064;6.346;2022-12-20T01:47:37;13.10;1.00
5218;DHT22;26539;51.064;6.346;2022-12-20T01:50:03;13.10;1.00
5218;DHT22;26539;51.064;6.346;2022-12-20T01:52:36;13.00;1.00
5218;DHT22;26539;51.064;6.346;2022-12-20T01:55:10;13.00;1.00
5218;DHT22;26539;51.064;6.346;2022-12-20T01:57:56;13.00;1.00
5218;DHT22;26539;51.064;6.346;2022-12-20T02:00:23;12.90;1.00
5218;DHT22;26539;51.064;6.346;2022-12-20T02:02:49;12.90;1.00
5218;DHT22;26539;51.064;6.346;2022-12-20T02:05:17;12.90;9.00
5218;DHT22;26539;51.064;6.346;2022-12-20T02:07:44;12.90;20.30
5218;DHT22;26539;51.064;6.346;2022-12-20T02:10:14;12.90;31.70
5218;DHT22;26539;51.064;6.346;2022-12-20T02:12:42;12.90;46.10
5218;DHT22;26539;51.064;6.346;2022-12-20T02:18:21;12.90;76.70
5218;DHT22;26539;51.064;6.346;2022-12-20T02:20:57;12.90;87.10
5218;DHT22;26539;51.064;6.346;2022-12-20T02:29:08;12.90;99.90
5218;DHT22;26539;51.064;6.346;2022-12-20T02:31:43;12.90;99.90
5218;DHT22;26539;51.064;6.346;2022-12-20T02:34:13;12.80;99.90
5218;DHT22;26539;51.064;6.346;2022-12-20T02:36:39;12.80;99.90
5218;DHT22;26539;51.064;6.346;2022-12-20T02:39:05;12.80;99.90
5218;DHT22;26539;51.064;6.346;2022-12-20T02:41:37;12.80;99.90
5218;DHT22;26539;51.064;6.346;2022-12-20T02:44:13;12.70;1.00
5218;DHT22;26539;51.064;6.346;2022-12-20T02:46:59;12.60;23.20
5218;DHT22;26539;51.064;6.346;2022-12-20T02:49:29;12.50;99.90
5218;DHT22;26539;51.064;6.346;2022-12-20T02:51:58;12.40;1.00
5218;DHT22;26539;51.064;6.346;2022-12-20T02:54:25;12.30;99.90
5218;DHT22;26539;51.064;6.346;2022-12-20T02:57:04;12.30;99.90
5218;DHT22;26539;51.064;6.346;2022-12-20T03:02:17;12.20;1.00
5218;DHT22;26539;51.064;6.346;2022-12-20T03:04:43;12.20;99.90
5218;DHT22;26539;51.064;6.346;2022-12-20T03:07:13;12.20;99.90
5218;DHT22;26539;51.064;6.346;2022-12-20T03:09:42;12.20;99.90
5218;DHT22;26539;51.064;6.346;2022-12-20T03:12:09;12.10;1.00
5218;DHT22;26539;51.064;6.346;2022-12-20T03:14:36;12.10;1.00
5218;DHT22;26539;51.064;6.346;2022-12-20T03:17:02;12.10;1.00
5218;DHT22;26539;51.064;6.346;2022-12-20T03:19:28;12.10;1.00
5218;DHT22;26539;51.064;6.346;2022-12-20T03:21:53;12.00;1.00
5218;DHT22;26539;51.064;6.346;2022-12-20T03:24:19;12.00;1.00
5218;DHT22;26539;51.064;6.346;2022-12-20T03:26:44;12.00;1.00
5218;DHT22;26539;51.064;6.346;2022-12-20T03:29:10;12.00;1.00
5218;DHT22;26539;51.064;6.346;2022-12-20T03:31:36;11.90;99.90
5218;DHT22;26539;51.064;6.346;2022-12-20T03:34:02;11.90;1.00
5218;DHT22;26539;51.064;6.346;2022-12-20T03:36:28;11.80;99.90
5218;DHT22;26539;51.064;6.346;2022-12-20T03:38:54;11.70;1.00
5218;DHT22;26539;51.064;6.346;2022-12-20T03:41:20;11.60;1.00
5218;DHT22;26539;51.064;6.346;2022-12-20T03:43:47;11.50;99.90
5218;DHT22;26539;51.064;6.346;2022-12-20T03:46:13;11.40;1.00
5218;DHT22;26539;51.064;6.346;2022-12-20T03:48:38;11.40;1.00
5218;DHT22;26539;51.064;6.346;2022-12-20T03:51:04;11.30;58.00
5218;DHT22;26539;51.064;6.346;2022-12-20T03:53:30;11.30;99.90
5218;DHT22;26539;51.064;6.346;2022-12-20T03:55:56;11.30;99.90
5218;DHT22;26539;51.064;6.346;2022-12-20T03:58:21;11.20;99.90
5218;DHT22;26539;51.064;6.346;2022-12-20T04:00:47;11.30;99.90
5218;DHT22;26539;51.064;6.346;2022-12-20T04:03:12;11.20;99.90
5218;DHT22;26539;51.064;6.346;2022-12-20T04:05:38;11.20;99.90
5218;DHT22;26539;51.064;6.346;2022-12-20T04:08:04;11.20;99.90
5218;DHT22;26539;51.064;6.346;2022-12-20T04:10:29;11.20;99.90
5218;DHT22;26539;51.064;6.346;2022-12-20T04:12:55;11.10;99.90
5218;DHT22;26539;51.064;6.346;2022-12-20T04:15:20;11.20;99.90
5218;DHT22;26539;51.064;6.346;2022-12-20T04:17:46;11.20;99.90
5218;DHT22;26539;51.064;6.346;2022-12-20T04:20:15;11.20;99.90
5218;DHT22;26539;51.064;6.346;2022-12-20T04:22:47;11.20;99.90
5218;DHT22;26539;51.064;6.346;2022-12-20T04:25:18;11.20;1.00
5218;DHT22;26539;51.064;6.346;2022-12-20T04:27:44;11.20;1.00
5218;DHT22;26539;51.064;6.346;2022-12-20T04:30:11;11.20;1.00
5218;DHT22;26539;51.064;6.346;2022-12-20T04:32:36;11.30;99.90
5218;DHT22;26539;51.064;6.346;2022-12-20T04:35:02;11.30;99.90
5218;DHT22;26539;51.064;6.346;2022-12-20T04:37:29;11.30;99.90
5218;DHT22;26539;51.064;6.346;2022-12-20T04:39:54;11.30;99.90
5218;DHT22;26539;51.064;6.346;2022-12-20T04:42:21;11.30;99.90
5218;DHT22;26539;51.064;6.346;2022-12-20T04:44:46;11.30;99.90
5218;DHT22;26539;51.064;6.346;2022-12-20T04:47:12;11.40;99.90
5218;DHT22;26539;51.064;6.346;2022-12-20T04:49:37;11.30;99.90
5218;DHT22;26539;51.064;6.346;2022-12-20T04:52:03;11.30;99.90
5218;DHT22;26539;51.064;6.346;2022-12-20T04:54:47;11.30;99.90
5218;DHT22;26539;51.064;6.346;2022-12-20T04:57:13;11.30;99.90
5218;DHT22;26539;51.064;6.346;2022-12-20T04:59:38;11.30;99.90
5218;DHT22;26539;51.064;6.346;2022-12-20T05:02:04;11.30;99.90
5218;DHT22;26539;51.064;6.346;2022-12-20T05:04:29;11.30;99.90
5218;DHT22;26539;51.064;6.346;2022-12-20T05:06:55;11.30;99.90
5218;DHT22;26539;51.064;6.346;2022-12-20T05:09:21;11.30;99.90
5218;DHT22;26539;51.064;6.346;2022-12-20T05:11:46;11.30;99.90
5218;DHT22;26539;51.064;6.346;2022-12-20T05:14:12;11.30;99.90
5218;DHT22;26539;51.064;6.346;2022-12-20T05:16:37;11.30;99.90
5218;DHT22;26539;51.064;6.346;2022-12-20T05:19:03;11.30;99.90
5218;DHT22;26539;51.064;6.346;2022-12-20T05:21:29;11.30;99.90
5218;DHT22;26539;51.064;6.346;2022-12-20T05:24:13;11.30;70.20
5218;DHT22;26539;51.064;6.346;2022-12-20T05:26:58;11.30;25.10
5218;DHT22;26539;51.064;6.346;2022-12-20T05:29:23;11.30;10.30
5218;DHT22;26539;51.064;6.346;2022-12-20T05:31:49;11.30;1.00
5218;DHT22;26539;51.064;6.346;2022-12-20T05:34:14;11.30;1.00
5218;DHT22;26539;51.064;6.346;2022-12-20T05:36:40;11.30;1.00
5218;DHT22;26539;51.064;6.346;2022-12-20T05:39:05;11.30;1.00
5218;DHT22;26539;51.064;6.346;2022-12-20T05:41:31;11.40;1.00
5218;DHT22;26539;51.064;6.346;2022-12-20T05:43:57;11.40;1.00
5218;DHT22;26539;51.064;6.346;2022-12-20T05:46:22;11.40;1.00
5218;DHT22;26539;51.064;6.346;2022-12-20T05:48:48;11.40;99.90
5218;DHT22;26539;51.064;6.346;2022-12-20T05:51:13;11.40;1.00
5218;DHT22;26539;51.064;6.346;2022-12-20T05:53:39;11.40;1.00
5218;DHT22;26539;51.064;6.346;2022-12-20T05:56:05;11.30;1.00
5218;DHT22;26539;51.064;6.346;2022-12-20T05:58:31;11.30;99.90
5218;DHT22;26539;51.064;6.346;2022-12-20T06:00:59;11.30;99.90
5218;DHT22;26539;51.064;6.346;2022-12-20T06:03:25;11.20;99.90
5218;DHT22;26539;51.064;6.346;2022-12-20T06:05:51;11.20;99.90
5218;DHT22;26539;51.064;6.346;2022-12-20T06:08:16;11.10;99.90
5218;DHT22;26539;51.064;6.346;2022-12-20T06:10:42;11.10;99.90
5218;DHT22;26539;51.064;6.346;2022-12-20T06:13:08;11.10;99.90
5218;DHT22;26539;51.064;6.346;2022-12-20T06:15:34;11.00;1.00
5218;DHT22;26539;51.064;6.346;2022-12-20T06:18:00;11.10;99.90
5218;DHT22;26539;51.064;6.346;2022-12-20T06:20:27;11.00;99.90
5218;DHT22;26539;51.064;6.346;2022-12-20T06:22:52;11.00;99.90
5218;DHT22;26539;51.064;6.346;2022-12-20T06:25:18;11.00;99.90
5218;DHT22;26539;51.064;6.346;2022-12-20T06:27:44;11.00;99.90
5218;DHT22;26539;51.064;6.346;2022-12-20T06:30:10;11.00;99.90
5218;DHT22;26539;51.064;6.346;2022-12-20T06:32:36;11.00;99.90
5218;DHT22;26539;51.064;6.346;2022-12-20T06:35:03;11.00;99.90
5218;DHT22;26539;51.064;6.346;2022-12-20T06:37:28;11.00;99.90
5218;DHT22;26539;51.064;6.346;2022-12-20T06:39:54;11.00;1.00
5218;DHT22;26539;51.064;6.346;2022-12-20T06:42:19;11.00;99.90
5218;DHT22;26539;51.064;6.346;2022-12-20T06:44:45;11.00;99.90
5218;DHT22;26539;51.064;6.346;2022-12-20T06:47:10;11.00;1.00
5218;DHT22;26539;51.064;6.346;2022-12-20T06:49:36;11.00;99.90
5218;DHT22;26539;51.064;6.346;2022-12-20T06:52:01;11.00;1.00
5218;DHT22;26539;51.064;6.346;2022-12-20T06:54:27;11.00;1.00
5218;DHT22;26539;51.064;6.346;2022-12-20T06:56:53;11.10;1.00
5218;DHT22;26539;51.064;6.346;2022-12-20T06:59:18;11.20;1.00
5218;DHT22;26539;51.064;6.346;2022-12-20T07:01:44;11.20;99.90
5218;DHT22;26539;51.064;6.346;2022-12-20T07:04:09;11.30;99.90
5218;DHT22;26539;51.064;6.346;2022-12-20T07:06:35;11.40;99.90
5218;DHT22;26539;51.064;6.346;2022-12-20T07:09:01;11.40;62.60
5218;DHT22;26539;51.064;6.346;2022-12-20T07:11:26;11.50;1.00
5218;DHT22;26539;51.064;6.346;2022-12-20T07:13:55;11.50;1.00
5218;DHT22;26539;51.064;6.346;2022-12-20T07:16:21;11.60;99.90
5218;DHT22;26539;51.064;6.346;2022-12-20T07:18:51;11.60;99.90
5218;DHT22;26539;51.064;6.346;2022-12-20T07:21:17;11.60;99.90
5218;DHT22;26539;51.064;6.346;2022-12-20T07:23:44;11.60;99.90
5218;DHT22;26539;51.064;6.346;2022-12-20T07:26:10;11.60;99.90
5218;DHT22;26539;51.064;6.346;2022-12-20T07:28:44;11.60;37.90
5218;DHT22;26539;51.064;6.346;2022-12-20T07:31:09;11.60;1.00
5218;DHT22;26539;51.064;6.346;2022-12-20T07:33:35;11.70;1.00
5218;DHT22;26539;51.064;6.346;2022-12-20T07:36:05;11.80;1.00
5218;DHT22;26539;51.064;6.346;2022-12-20T07:38:32;11.80;99.90
5218;DHT22;26539;51.064;6.346;2022-12-20T07:40:58;11.80;99.90
5218;DHT22;26539;51.064;6.346;2022-12-20T07:43:24;11.90;42.80
5218;DHT22;26539;51.064;6.346;2022-12-20T07:45:54;11.90;1.00
5218;DHT22;26539;51.064;6.346;2022-12-20T07:48:20;11.90;1.00
5218;DHT22;26539;51.064;6.346;2022-12-20T07:50:45;11.90;1.00
5218;DHT22;26539;51.064;6.346;2022-12-20T07:53:11;11.90;1.00
5218;DHT22;26539;51.064;6.346;2022-12-20T07:55:37;12.00;99.90
5218;DHT22;26539;51.064;6.346;2022-12-20T07:58:05;12.00;99.90
5218;DHT22;26539;51.064;6.346;2022-12-20T08:00:32;12.00;99.90
5218;DHT22;26539;51.064;6.346;2022-12-20T08:03:04;12.00;99.90
5218;DHT22;26539;51.064;6.346;2022-12-20T08:05:32;12.00;99.90
5218;DHT22;26539;51.064;6.346;2022-12-20T08:08:00;12.00;98.40
5218;DHT22;26539;51.064;6.346;2022-12-20T08:10:26;12.00;1.00
5218;DHT22;26539;51.064;6.346;2022-12-20T08:12:53;12.10;1.00
5218;DHT22;26539;51.064;6.346;2022-12-20T08:15:19;12.10;1.00
5218;DHT22;26539;51.064;6.346;2022-12-20T08:17:50;12.10;1.00
5218;DHT22;26539;51.064;6.346;2022-12-20T08:20:16;12.10;1.00
5218;DHT22;26539;51.064;6.346;2022-12-20T08:22:42;12.10;1.00
5218;DHT22;26539;51.064;6.346;2022-12-20T08:25:07;12.10;1.00
5218;DHT22;26539;51.064;6.346;2022-12-20T08:27:36;12.10;1.00
5218;DHT22;26539;51.064;6.346;2022-12-20T08:30:02;12.20;1.00
5218;DHT22;26539;51.064;6.346;2022-12-20T08:32:27;12.20;1.00
5218;DHT22;26539;51.064;6.346;2022-12-20T08:34:53;12.30;99.90
5218;DHT22;26539;51.064;6.346;2022-12-20T08:37:19;12.30;99.90
5218;DHT22;26539;51.064;6.346;2022-12-20T08:39:45;12.30;99.90
5218;DHT22;26539;51.064;6.346;2022-12-20T08:42:12;12.40;99.90
5218;DHT22;26539;51.064;6.346;2022-12-20T08:44:37;12.40;99.90
5218;DHT22;26539;51.064;6.346;2022-12-20T08:47:03;12.40;99.90
5218;DHT22;26539;51.064;6.346;2022-12-20T08:49:28;12.50;25.20
5218;DHT22;26539;51.064;6.346;2022-12-20T08:51:54;12.50;1.00
5218;DHT22;26539;51.064;6.346;2022-12-20T08:54:20;12.50;1.00
5218;DHT22;26539;51.064;6.346;2022-12-20T08:56:45;12.50;1.00
5218;DHT22;26539;51.064;6.346;2022-12-20T08:59:11;12.60;1.00
5218;DHT22;26539;51.064;6.346;2022-12-20T09:01:36;12.60;1.00
5218;DHT22;26539;51.064;6.346;2022-12-20T09:04:02;12.60;1.00
5218;DHT22;26539;51.064;6.346;2022-12-20T09:06:28;12.60;1.00
5218;DHT22;26539;51.064;6.346;2022-12-20T09:08:54;12.60;1.00
5218;DHT22;26539;51.064;6.346;2022-12-20T09:11:24;12.60;1.00
5218;DHT22;26539;51.064;6.346;2022-12-20T09:13:56;12.60;1.00
5218;DHT22;26539;51.064;6.346;2022-12-20T09:16:24;12.70;1.00
5218;DHT22;26539;51.064;6.346;2022-12-20T09:18:51;12.70;1.00
5218;DHT22;26539;51.064;6.346;2022-12-20T09:21:17;12.70;1.00
5218;DHT22;26539;51.064;6.346;2022-12-20T09:23:43;12.70;1.00
5218;DHT22;26539;51.064;6.346;2022-12-20T09:26:12;12.70;1.00
5218;DHT22;26539;51.064;6.346;2022-12-20T09:28:38;12.70;1.00
5218;DHT22;26539;51.064;6.346;2022-12-20T09:31:06;12.70;1.00
5218;DHT22;26539;51.064;6.346;2022-12-20T09:33:33;12.80;1.00
5218;DHT22;26539;51.064;6.346;2022-12-20T09:36:00;12.80;1.00
5218;DHT22;26539;51.064;6.346;2022-12-20T09:38:29;12.80;1.00
5218;DHT22;26539;51.064;6.346;2022-12-20T09:40:58;12.80;1.00
5218;DHT22;26539;51.064;6.346;2022-12-20T09:43:26;12.90;1.00
5218;DHT22;26539;51.064;6.346;2022-12-20T09:45:56;12.90;1.00
5218;DHT22;26539;51.064;6.346;2022-12-20T09:48:34;12.90;1.00
5218;DHT22;26539;51.064;6.346;2022-12-20T09:53:50;13.00;99.90
5218;DHT22;26539;51.064;6.346;2022-12-20T09:59:07;13.10;99.90
5218;DHT22;26539;51.064;6.346;2022-12-20T10:01:35;13.10;99.90
5218;DHT22;26539;51.064;6.346;2022-12-20T10:04:23;13.20;99.90
5218;DHT22;26539;51.064;6.346;2022-12-20T10:07:05;13.20;99.90
5218;DHT22;26539;51.064;6.346;2022-12-20T10:12:46;13.20;99.90
5218;DHT22;26539;51.064;6.346;2022-12-20T10:15:45;13.30;34.00
5218;DHT22;26539;51.064;6.346;2022-12-20T10:18:42;13.40;1.00
5218;DHT22;26539;51.064;6.346;2022-12-20T10:24:03;13.50;1.00
5218;DHT22;26539;51.064;6.346;2022-12-20T10:26:32;13.60;1.00
5218;DHT22;26539;51.064;6.346;2022-12-20T10:28:57;13.70;1.00
5218;DHT22;26539;51.064;6.346;2022-12-20T10:31:23;13.70;1.00
5218;DHT22;26539;51.064;6.346;2022-12-20T10:33:50;13.90;1.00
5218;DHT22;26539;51.064;6.346;2022-12-20T10:36:30;13.90;99.90
5218;DHT22;26539;51.064;6.346;2022-12-20T10:39:04;14.10;99.90
5218;DHT22;26539;51.064;6.346;2022-12-20T10:44:18;14.20;99.90
5218;DHT22;26539;51.064;6.346;2022-12-20T10:46:49;14.40;99.90
5218;DHT22;26539;51.064;6.346;2022-12-20T10:51:55;14.70;99.90
5218;DHT22;26539;51.064;6.346;2022-12-20T10:54:24;14.70;99.90
5218;DHT22;26539;51.064;6.346;2022-12-20T10:56:55;14.80;99.90
5218;DHT22;26539;51.064;6.346;2022-12-20T10:59:37;14.80;93.20
5218;DHT22;26539;51.064;6.346;2022-12-20T11:05:18;14.90;15.10
5218;DHT22;26539;51.064;6.346;2022-12-20T11:08:00;14.80;4.60
5218;DHT22;26539;51.064;6.346;2022-12-20T11:10:31;14.70;11.80
5218;DHT22;26539;51.064;6.346;2022-12-20T11:12:58;14.70;17.10
5218;DHT22;26539;51.064;6.346;2022-12-20T11:15:35;14.60;16.40
5218;DHT22;26539;51.064;6.346;2022-12-20T11:18:12;14.60;18.30
5218;DHT22;26539;51.064;6.346;2022-12-20T11:37:23;14.50;1.00
5218;DHT22;26539;51.064;6.346;2022-12-20T11:42:59;14.60;1.00
5218;DHT22;26539;51.064;6.346;2022-12-20T11:45:49;14.60;1.00
5218;DHT22;26539;51.064;6.346;2022-12-20T11:48:45;14.60;1.00
5218;DHT22;26539;51.064;6.346;2022-12-20T11:51:23;14.60;1.00
5218;DHT22;26539;51.064;6.346;2022-12-20T11:54:05;14.60;1.00
5218;DHT22;26539;51.064;6.346;2022-12-20T11:56:39;14.60;1.00
5218;DHT22;26539;51.064;6.346;2022-12-20T11:59:35;14.50;1.00
5218;DHT22;26539;51.064;6.346;2022-12-20T12:02:12;14.50;1.00
5218;DHT22;26539;51.064;6.346;2022-12-20T12:05:15;14.40;14.10
5218;DHT22;26539;51.064;6.346;2022-12-20T12:07:47;14.40;90.80
5218;DHT22;26539;51.064;6.346;2022-12-20T12:10:20;14.30;99.90
5218;DHT22;26539;51.064;6.346;2022-12-20T12:13:02;14.20;99.90
5218;DHT22;26539;51.064;6.346;2022-12-20T12:15:52;14.10;1.00
5218;DHT22;26539;51.064;6.346;2022-12-20T12:18:24;14.00;91.20
5218;DHT22;26539;51.064;6.346;2022-12-20T12:26:33;13.60;99.90
5218;DHT22;26539;51.064;6.346;2022-12-20T12:29:09;13.60;99.90
5218;DHT22;26539;51.064;6.346;2022-12-20T12:40:12;13.30;99.90
5218;DHT22;26539;51.064;6.346;2022-12-20T12:45:51;13.20;1.00
5218;DHT22;26539;51.064;6.346;2022-12-20T12:48:26;13.20;40.70
5218;DHT22;26539;51.064;6.346;2022-12-20T12:50:56;13.10;99.90
5218;DHT22;26539;51.064;6.346;2022-12-20T12:53:33;13.10;99.90
5218;DHT22;26539;51.064;6.346;2022-12-20T13:01:54;13.00;99.90
5218;DHT22;26539;51.064;6.346;2022-12-20T13:07:43;13.10;99.90
5218;DHT22;26539;51.064;6.346;2022-12-20T13:17:59;13.20;99.90
5218;DHT22;26539;51.064;6.346;2022-12-20T13:20:29;13.20;76.60
5218;DHT22;26539;51.064;6.346;2022-12-20T13:23:14;13.20;1.00
5218;DHT22;26539;51.064;6.346;2022-12-20T13:25:46;13.20;1.00
5218;DHT22;26539;51.064;6.346;2022-12-20T13:31:33;13.20;1.00
5218;DHT22;26539;51.064;6.346;2022-12-20T13:33:45;13.20;1.00
5218;DHT22;26539;51.064;6.346;2022-12-20T13:41:16;13.10;27.50
5218;DHT22;26539;51.064;6.346;2022-12-20T13:43:45;13.10;52.00
5218;DHT22;26539;51.064;6.346;2022-12-20T13:46:20;13.10;99.90
5218;DHT22;26539;51.064;6.346;2022-12-20T13:48:53;13.00;99.90
5218;DHT22;26539;51.064;6.346;2022-12-20T13:51:22;13.00;99.90
5218;DHT22;26539;51.064;6.346;2022-12-20T13:53:54;12.90;99.90
5218;DHT22;26539;51.064;6.346;2022-12-20T13:59:19;12.90;1.00
5218;DHT22;26539;51.064;6.346;2022-12-20T14:01:55;12.90;97.40
5218;DHT22;26539;51.064;6.346;2022-12-20T14:04:23;12.90;99.90
5218;DHT22;26539;51.064;6.346;2022-12-20T14:06:53;12.90;99.90
5218;DHT22;26539;51.064;6.346;2022-12-20T14:09:37;12.80;99.90
5218;DHT22;26539;51.064;6.346;2022-12-20T14:12:11;12.80;1.00
5218;DHT22;26539;51.064;6.346;2022-12-20T14:14:45;12.80;1.00
5218;DHT22;26539;51.064;6.346;2022-12-20T14:17:16;12.80;1.00
5218;DHT22;26539;51.064;6.346;2022-12-20T14:19:42;12.70;23.60
5218;DHT22;26539;51.064;6.346;2022-12-20T14:22:10;12.80;1.00
5218;DHT22;26539;51.064;6.346;2022-12-20T14:24:38;12.70;32.30
5218;DHT22;26539;51.064;6.346;2022-12-20T14:27:04;12.70;46.80
5218;DHT22;26539;51.064;6.346;2022-12-20T14:29:30;12.70;92.80
5218;DHT22;26539;51.064;6.346;2022-12-20T14:31:56;12.60;99.90
5218;DHT22;26539;51.064;6.346;2022-12-20T14:34:28;12.60;99.90
5218;DHT22;26539;51.064;6.346;2022-12-20T14:42:33;12.60;99.90
5218;DHT22;26539;51.064;6.346;2022-12-20T14:47:32;12.60;99.90
5218;DHT22;26539;51.064;6.346;2022-12-20T14:50:05;12.60;99.90
5218;DHT22;26539;51.064;6.346;2022-12-20T14:55:03;12.60;99.90
5218;DHT22;26539;51.064;6.346;2022-12-20T15:00:09;12.50;99.90
5218;DHT22;26539;51.064;6.346;2022-12-20T15:07:50;12.50;99.90
5218;DHT22;26539;51.064;6.346;2022-12-20T15:10:16;12.50;99.90
5218;DHT22;26539;51.064;6.346;2022-12-20T15:12:41;12.50;99.90
5218;DHT22;26539;51.064;6.346;2022-12-20T15:15:13;12.40;99.90
5218;DHT22;26539;51.064;6.346;2022-12-20T15:17:42;12.40;99.90
5218;DHT22;26539;51.064;6.346;2022-12-20T15:20:11;12.40;99.90
5218;DHT22;26539;51.064;6.346;2022-12-20T15:22:37;12.40;99.90
5218;DHT22;26539;51.064;6.346;2022-12-20T15:25:16;12.30;99.90
5218;DHT22;26539;51.064;6.346;2022-12-20T15:27:42;12.30;99.90
5218;DHT22;26539;51.064;6.346;2022-12-20T15:30:14;12.30;99.90
5218;DHT22;26539;51.064;6.346;2022-12-20T15:32:41;12.30;99.90
5218;DHT22;26539;51.064;6.346;2022-12-20T15:35:12;12.30;99.90
5218;DHT22;26539;51.064;6.346;2022-12-20T15:37:38;12.30;99.90
5218;DHT22;26539;51.064;6.346;2022-12-20T15:40:04;12.40;99.90
5218;DHT22;26539;51.064;6.346;2022-12-20T15:42:30;12.40;99.90
5218;DHT22;26539;51.064;6.346;2022-12-20T15:44:55;12.40;99.90
5218;DHT22;26539;51.064;6.346;2022-12-20T15:47:22;12.40;99.90
5218;DHT22;26539;51.064;6.346;2022-12-20T15:49:48;12.40;99.90
5218;DHT22;26539;51.064;6.346;2022-12-20T15:52:21;12.40;99.90
5218;DHT22;26539;51.064;6.346;2022-12-20T15:54:48;12.40;99.90
5218;DHT22;26539;51.064;6.346;2022-12-20T15:57:14;12.40;99.90
5218;DHT22;26539;51.064;6.346;2022-12-20T15:59:40;12.30;99.90
5218;DHT22;26539;51.064;6.346;2022-12-20T16:04:41;12.30;99.90
5218;DHT22;26539;51.064;6.346;2022-12-20T16:07:10;12.30;99.90
5218;DHT22;26539;51.064;6.346;2022-12-20T16:09:53;12.30;99.90
5218;DHT22;26539;51.064;6.346;2022-12-20T16:12:25;12.30;99.90
5218;DHT22;26539;51.064;6.346;2022-12-20T16:14:51;12.30;99.90
5218;DHT22;26539;51.064;6.346;2022-12-20T16:17:16;12.30;99.90
5218;DHT22;26539;51.064;6.346;2022-12-20T16:19:42;12.30;99.90
5218;DHT22;26539;51.064;6.346;2022-12-20T16:22:14;12.30;99.90
5218;DHT22;26539;51.064;6.346;2022-12-20T16:24:40;12.20;1.00
5218;DHT22;26539;51.064;6.346;2022-12-20T16:27:06;12.20;1.00
5218;DHT22;26539;51.064;6.346;2022-12-20T16:29:32;12.20;1.00
5218;DHT22;26539;51.064;6.346;2022-12-20T16:31:57;12.20;1.00
5218;DHT22;26539;51.064;6.346;2022-12-20T16:34:23;12.20;1.00
5218;DHT22;26539;51.064;6.346;2022-12-20T16:36:48;12.10;1.00
5218;DHT22;26539;51.064;6.346;2022-12-20T16:39:15;12.10;1.00
5218;DHT22;26539;51.064;6.346;2022-12-20T16:41:40;12.20;1.00
5218;DHT22;26539;51.064;6.346;2022-12-20T16:44:12;12.10;1.00
5218;DHT22;26539;51.064;6.346;2022-12-20T16:46:37;12.10;1.00
5218;DHT22;26539;51.064;6.346;2022-12-20T16:49:03;12.10;1.00
5218;DHT22;26539;51.064;6.346;2022-12-20T16:51:38;12.10;1.00
5218;DHT22;26539;51.064;6.346;2022-12-20T16:54:10;12.10;1.00
5218;DHT22;26539;51.064;6.346;2022-12-20T16:56:49;12.10;1.00
5218;DHT22;26539;51.064;6.346;2022-12-20T16:59:23;12.10;1.00
5218;DHT22;26539;51.064;6.346;2022-12-20T17:01:54;12.10;1.00
5218;DHT22;26539;51.064;6.346;2022-12-20T17:04:21;12.10;1.00
5218;DHT22;26539;51.064;6.346;2022-12-20T17:06:47;12.10;1.00
5218;DHT22;26539;51.064;6.346;2022-12-20T17:09:13;12.10;1.00
5218;DHT22;26539;51.064;6.346;2022-12-20T17:11:40;12.10;1.00
5218;DHT22;26539;51.064;6.346;2022-12-20T17:14:05;12.10;1.00
5218;DHT22;26539;51.064;6.346;2022-12-20T17:16:31;12.10;1.00
5218;DHT22;26539;51.064;6.346;2022-12-20T17:18:57;12.10;1.00
5218;DHT22;26539;51.064;6.346;2022-12-20T17:21:32;12.00;1.00
5218;DHT22;26539;51.064;6.346;2022-12-20T17:23:58;12.00;1.00
5218;DHT22;26539;51.064;6.346;2022-12-20T17:26:26;12.00;1.00
5218;DHT22;26539;51.064;6.346;2022-12-20T17:28:53;12.00;1.00
5218;DHT22;26539;51.064;6.346;2022-12-20T17:31:46;12.00;1.00
5218;DHT22;26539;51.064;6.346;2022-12-20T17:34:25;11.90;1.00
5218;DHT22;26539;51.064;6.346;2022-12-20T17:36:52;11.90;1.00
5218;DHT22;26539;51.064;6.346;2022-12-20T17:39:19;11.90;1.00
5218;DHT22;26539;51.064;6.346;2022-12-20T17:41:45;12.00;1.00
5218;DHT22;26539;51.064;6.346;2022-12-20T17:44:37;11.90;1.00
5218;DHT22;26539;51.064;6.346;2022-12-20T17:47:02;12.00;1.00
5218;DHT22;26539;51.064;6.346;2022-12-20T17:49:28;12.00;1.00
5218;DHT22;26539;51.064;6.346;2022-12-20T17:51:53;12.00;1.00
5218;DHT22;26539;51.064;6.346;2022-12-20T17:54:24;12.00;1.00
5218;DHT22;26539;51.064;6.346;2022-12-20T17:56:51;12.00;1.00
5218;DHT22;26539;51.064;6.346;2022-12-20T17:59:18;12.00;1.00
5218;DHT22;26539;51.064;6.346;2022-12-20T18:01:45;11.90;1.00
5218;DHT22;26539;51.064;6.346;2022-12-20T18:04:13;11.90;1.00
5218;DHT22;26539;51.064;6.346;2022-12-20T18:06:40;11.90;1.00
5218;DHT22;26539;51.064;6.346;2022-12-20T18:09:12;11.90;1.00
5218;DHT22;26539;51.064;6.346;2022-12-20T18:11:38;11.90;1.00
5218;DHT22;26539;51.064;6.346;2022-12-20T18:14:03;11.90;1.00